Pagina principale
METAR-TAF:

METAR-TAF

Aeroporti :

Chugiak, Alaska, Stati Uniti

latitudine: 61-25N, longitudine: 149-31W, altezza: 29 m

Osservazione

Il bollettino è stato emesso 36 minuti fa, alle 05:56 UTC
Vento 8 kt da sud/sud-ovest
Temperature 12°C
Umidità 67%
Pressione 1003 hPa
Visibilità: 16.1 km
Cielo coperto ad un'altezza di 8000 ft

METAR: PABV 230556Z AUTO 20008KT 10SM OVC080 12/06 A2963 RMK AO2 SLP041 60000 T01170056 10156 20117 53003

Ora: 22:32 (06:32 UTC)


TAF: mancante

Osservazioni e previsioni meteorologiche di più di 4000 aeroporti (messaggi METAR e TAF).

Le stazioni disponibili sono rappresentate dai dischi gialli e rossi sulla carta.

Puntare il mouse per vedere il nome della stazione.

Clicca sopra per visualizzare le osservazioni e previsioni meteorologiche.

Per cambiare la mappa : fare clic sui pulsanti verdi con una croce nera per ingrandire, il pulsante verde con un trattino per diminuire, o sulla freccia verde per le mappe adiacenti.


METAR-TAF: